createdAt,value
2022-11-30T00:01:51.643Z,37.80
2022-11-30T00:04:19.503Z,35.80
2022-11-30T00:06:48.661Z,37.10
2022-11-30T00:09:16.467Z,36.30
2022-11-30T00:11:44.297Z,37.37
2022-11-30T00:14:12.063Z,38.30
2022-11-30T00:16:40.934Z,37.20
2022-11-30T00:19:08.794Z,36.83
2022-11-30T00:21:36.650Z,39.03
2022-11-30T00:24:06.589Z,37.67
2022-11-30T00:26:34.541Z,37.33
2022-11-30T00:29:02.332Z,37.10
2022-11-30T00:31:30.177Z,39.33
2022-11-30T00:33:58.281Z,37.13
2022-11-30T00:36:26.137Z,36.90
2022-11-30T00:38:54.175Z,35.77
2022-11-30T00:41:23.491Z,38.07
2022-11-30T00:43:51.288Z,38.03
2022-11-30T00:46:19.284Z,38.33
2022-11-30T00:48:47.905Z,37.67
2022-11-30T00:51:16.036Z,37.93
2022-11-30T00:53:43.988Z,37.90
2022-11-30T00:56:12.244Z,39.27
2022-11-30T00:58:41.451Z,38.57
2022-11-30T01:01:09.504Z,36.70
2022-11-30T01:03:37.678Z,37.63
2022-11-30T01:06:06.197Z,37.60
2022-11-30T01:08:34.571Z,37.83
2022-11-30T01:11:08.888Z,39.23
2022-11-30T01:13:36.858Z,38.60
2022-11-30T01:16:11.561Z,38.37
2022-11-30T01:18:39.873Z,37.97
2022-11-30T01:21:08.985Z,37.77
2022-11-30T01:23:37.302Z,38.27
2022-11-30T01:26:05.270Z,38.27
2022-11-30T01:28:33.624Z,37.87
2022-11-30T01:31:03.081Z,36.40
2022-11-30T01:33:32.620Z,36.97
2022-11-30T01:36:02.363Z,37.53
2022-11-30T01:38:33.824Z,31.50
2022-11-30T01:41:01.791Z,37.60
2022-11-30T01:43:40.346Z,37.93
2022-11-30T01:46:22.117Z,37.67
2022-11-30T01:49:00.646Z,37.10
2022-11-30T01:51:32.952Z,38.33
2022-11-30T01:54:01.425Z,35.23
2022-11-30T01:56:29.513Z,39.07
2022-11-30T01:58:57.434Z,37.87
2022-11-30T02:01:26.291Z,37.77
2022-11-30T02:04:02.338Z,37.13
2022-11-30T02:06:31.026Z,37.47
2022-11-30T02:08:59.267Z,35.83
2022-11-30T02:11:28.780Z,36.93
2022-11-30T02:14:32.571Z,38.47
2022-11-30T02:17:11.584Z,37.80
2022-11-30T02:19:59.123Z,37.70
2022-11-30T02:22:41.972Z,37.93
2022-11-30T02:25:16.704Z,38.53
2022-11-30T02:27:59.950Z,37.37
2022-11-30T02:30:32.513Z,38.63
2022-11-30T02:33:06.723Z,38.23
2022-11-30T02:35:39.027Z,39.03
2022-11-30T02:38:07.316Z,38.93
2022-11-30T02:40:35.137Z,37.40
2022-11-30T02:43:05.592Z,37.80
2022-11-30T02:45:39.347Z,38.90
2022-11-30T02:48:10.084Z,38.37
2022-11-30T02:50:41.901Z,38.43
2022-11-30T02:53:10.828Z,35.77
2022-11-30T02:55:38.604Z,37.93
2022-11-30T02:58:06.531Z,40.07
2022-11-30T03:00:35.810Z,37.90
2022-11-30T03:03:03.782Z,39.53
2022-11-30T03:05:31.651Z,39.27
2022-11-30T03:07:59.698Z,38.33
2022-11-30T03:10:27.663Z,37.77
2022-11-30T03:12:58.674Z,38.10
2022-11-30T03:15:26.565Z,35.00
2022-11-30T03:17:55.805Z,39.47
2022-11-30T03:20:23.636Z,37.70
2022-11-30T03:22:51.404Z,37.83
2022-11-30T03:25:19.249Z,37.30
2022-11-30T03:27:47.054Z,37.80
2022-11-30T03:30:15.201Z,36.70
2022-11-30T03:32:42.984Z,37.83
2022-11-30T03:35:12.184Z,38.00
2022-11-30T03:37:39.985Z,38.07
2022-11-30T03:40:11.360Z,38.10
2022-11-30T03:42:39.211Z,37.47
2022-11-30T03:45:07.870Z,37.90
2022-11-30T03:47:35.778Z,36.83
2022-11-30T03:50:03.611Z,35.23
2022-11-30T03:52:32.815Z,38.87
2022-11-30T03:55:00.660Z,38.50
2022-11-30T03:57:28.507Z,38.00
2022-11-30T03:59:56.263Z,40.40
2022-11-30T04:02:24.188Z,40.23
2022-11-30T04:04:51.989Z,38.63
2022-11-30T04:07:19.892Z,37.20
2022-11-30T04:09:49.156Z,37.97
2022-11-30T04:12:17.039Z,35.87
2022-11-30T04:14:45.151Z,36.03
2022-11-30T04:17:13.340Z,38.20
2022-11-30T04:19:41.128Z,36.40
2022-11-30T04:22:08.967Z,36.27
2022-11-30T04:24:36.907Z,35.30
2022-11-30T04:27:06.149Z,37.07
2022-11-30T04:29:33.920Z,36.43
2022-11-30T04:32:01.819Z,35.60
2022-11-30T04:34:31.443Z,34.97
2022-11-30T04:37:00.616Z,35.40
2022-11-30T04:39:28.594Z,36.53
2022-11-30T04:41:56.491Z,36.27
2022-11-30T04:44:25.668Z,36.67
2022-11-30T04:46:53.623Z,35.43
2022-11-30T04:49:21.528Z,36.07
2022-11-30T04:51:49.346Z,36.37
2022-11-30T04:54:17.193Z,36.23
2022-11-30T04:56:45.199Z,34.30
2022-11-30T04:59:12.970Z,36.07
2022-11-30T05:01:42.229Z,36.23
2022-11-30T05:04:10.138Z,35.13
2022-11-30T05:06:38.042Z,37.77
2022-11-30T05:09:06.004Z,37.53
2022-11-30T05:11:33.883Z,35.23
2022-11-30T05:14:01.773Z,37.00
2022-11-30T05:16:29.697Z,37.73
2022-11-30T05:18:58.933Z,36.97
2022-11-30T05:21:26.854Z,38.43
2022-11-30T05:23:54.851Z,37.47
2022-11-30T05:26:22.667Z,37.33
2022-11-30T05:28:50.547Z,37.30
2022-11-30T05:31:18.536Z,37.03
2022-11-30T05:33:51.229Z,36.77
2022-11-30T05:36:21.087Z,36.20
2022-11-30T05:38:49.149Z,37.87
2022-11-30T05:41:17.119Z,38.23
2022-11-30T05:43:45.140Z,36.30
2022-11-30T05:46:13.050Z,37.13
2022-11-30T05:48:40.874Z,36.30
2022-11-30T05:51:10.596Z,34.87
2022-11-30T05:53:40.355Z,37.03
2022-11-30T05:56:12.093Z,37.23
2022-11-30T05:58:40.643Z,38.47
2022-11-30T06:01:09.121Z,37.03
2022-11-30T06:03:37.286Z,37.60
2022-11-30T06:06:05.345Z,38.20
2022-11-30T06:08:33.334Z,39.90
2022-11-30T06:11:03.280Z,39.87
2022-11-30T06:13:32.464Z,36.57
2022-11-30T06:16:00.806Z,38.60
2022-11-30T06:18:28.957Z,40.13
2022-11-30T06:21:00.506Z,38.30
2022-11-30T06:23:28.477Z,38.00
2022-11-30T06:25:56.386Z,35.93
2022-11-30T06:28:25.905Z,38.43
2022-11-30T06:30:53.763Z,38.37
2022-11-30T06:33:23.561Z,38.57
2022-11-30T06:35:51.387Z,38.37
2022-11-30T06:38:19.337Z,35.93
2022-11-30T06:40:47.255Z,39.87
2022-11-30T06:43:15.209Z,39.10
2022-11-30T06:45:46.226Z,38.27
2022-11-30T06:48:14.835Z,36.17
2022-11-30T06:50:48.417Z,39.10
2022-11-30T06:53:17.960Z,37.90
2022-11-30T06:55:45.767Z,37.83
2022-11-30T06:58:13.675Z,39.47
2022-11-30T07:00:42.721Z,38.23
2022-11-30T07:03:12.713Z,38.47
2022-11-30T07:05:43.759Z,37.77
2022-11-30T07:08:11.872Z,39.03
2022-11-30T07:10:43.548Z,39.63
2022-11-30T07:13:12.801Z,36.83
2022-11-30T07:15:43.547Z,37.67
2022-11-30T07:18:13.245Z,38.27
2022-11-30T07:20:41.190Z,36.73
2022-11-30T07:23:26.959Z,37.83
2022-11-30T07:26:09.358Z,37.00
2022-11-30T07:28:39.118Z,36.77
2022-11-30T07:31:21.241Z,36.23
2022-11-30T07:33:51.623Z,36.07
2022-11-30T07:36:21.077Z,36.27
2022-11-30T07:38:49.293Z,37.20
2022-11-30T07:41:17.356Z,36.63
2022-11-30T07:43:45.352Z,37.27
2022-11-30T07:46:14.513Z,35.13
2022-11-30T07:48:42.890Z,33.97
2022-11-30T07:51:15.033Z,34.13
2022-11-30T07:53:43.334Z,35.80
2022-11-30T07:56:13.456Z,35.30
2022-11-30T07:58:42.014Z,34.83
2022-11-30T08:01:12.034Z,35.27
2022-11-30T08:03:40.326Z,34.70
2022-11-30T08:06:11.484Z,34.23
2022-11-30T08:08:42.567Z,33.23
2022-11-30T08:11:13.286Z,33.77
2022-11-30T08:13:41.361Z,33.27
2022-11-30T08:16:11.034Z,34.37
2022-11-30T08:18:39.308Z,34.23
2022-11-30T08:21:09.503Z,33.30
2022-11-30T08:23:41.142Z,33.40
2022-11-30T08:26:12.061Z,31.47
2022-11-30T08:28:40.630Z,31.43
2022-11-30T08:31:10.468Z,31.07
2022-11-30T08:33:38.860Z,31.37
2022-11-30T08:36:09.014Z,31.30
2022-11-30T08:38:37.206Z,31.97
2022-11-30T08:41:07.882Z,32.03
2022-11-30T08:43:35.983Z,33.17
2022-11-30T08:46:27.572Z,33.33
2022-11-30T08:49:12.538Z,32.77
2022-11-30T08:52:15.355Z,31.73
2022-11-30T08:54:30.532Z,32.47
2022-11-30T08:56:59.721Z,33.17
2022-11-30T08:59:27.757Z,31.97
2022-11-30T09:01:55.563Z,31.73
2022-11-30T09:04:23.467Z,32.67
2022-11-30T09:06:51.305Z,33.03
2022-11-30T09:09:19.167Z,30.47
2022-11-30T09:11:47.019Z,29.77
2022-11-30T09:14:16.232Z,30.43
2022-11-30T09:16:44.108Z,30.70
2022-11-30T09:19:12.050Z,30.07
2022-11-30T09:21:40.178Z,30.40
2022-11-30T09:24:08.675Z,30.90
2022-11-30T09:26:36.753Z,31.63
2022-11-30T09:29:04.862Z,31.40
2022-11-30T09:31:33.987Z,30.20
2022-11-30T09:34:01.871Z,30.70
2022-11-30T09:36:29.951Z,29.97
2022-11-30T09:38:58.124Z,27.47
2022-11-30T09:41:54.938Z,30.33
2022-11-30T09:44:30.644Z,28.87
2022-11-30T09:47:08.712Z,29.90
2022-11-30T09:49:38.626Z,27.97
2022-11-30T09:52:12.904Z,28.37
2022-11-30T09:54:44.129Z,29.13
2022-11-30T09:57:22.024Z,28.03
2022-11-30T09:59:55.567Z,26.97
2022-11-30T10:02:29.809Z,28.07
2022-11-30T10:04:58.538Z,27.23
2022-11-30T10:07:42.177Z,27.50
2022-11-30T10:10:34.601Z,27.17
2022-11-30T10:13:18.549Z,24.90
2022-11-30T10:15:58.173Z,23.73
2022-11-30T10:18:37.809Z,25.67
2022-11-30T10:21:17.887Z,23.57
2022-11-30T10:23:59.881Z,25.87
2022-11-30T10:26:32.992Z,25.07
2022-11-30T10:29:08.340Z,24.43
2022-11-30T10:31:38.529Z,24.20
2022-11-30T10:34:20.269Z,24.00
2022-11-30T10:36:54.005Z,24.77
2022-11-30T10:39:26.281Z,24.07
2022-11-30T10:42:01.113Z,23.63
2022-11-30T10:44:32.920Z,23.43
2022-11-30T10:47:03.975Z,23.77
2022-11-30T10:49:35.621Z,24.93
2022-11-30T10:52:07.589Z,23.57
2022-11-30T10:54:36.875Z,24.77
2022-11-30T10:57:08.287Z,25.13
2022-11-30T10:59:45.715Z,23.20
2022-11-30T11:02:36.494Z,24.17
2022-11-30T11:05:18.063Z,24.97
2022-11-30T11:07:51.986Z,25.87
2022-11-30T11:10:22.421Z,24.90
2022-11-30T11:12:52.538Z,26.53
2022-11-30T11:15:23.315Z,27.77
2022-11-30T11:17:51.771Z,25.57
2022-11-30T11:20:34.715Z,25.23
2022-11-30T11:23:03.929Z,23.30
2022-11-30T11:25:37.279Z,23.03
2022-11-30T11:28:09.562Z,25.20
2022-11-30T11:30:38.423Z,24.33
2022-11-30T11:33:21.254Z,26.73
2022-11-30T11:35:52.437Z,22.80
2022-11-30T11:38:27.304Z,23.27
2022-11-30T11:40:57.626Z,23.63
2022-11-30T11:43:28.320Z,25.87
2022-11-30T11:45:58.584Z,25.23
2022-11-30T11:48:34.697Z,28.20
2022-11-30T11:51:07.554Z,34.10
2022-11-30T11:53:50.108Z,33.87
2022-11-30T11:56:26.284Z,27.03
2022-11-30T11:58:59.672Z,25.10
2022-11-30T12:01:43.331Z,27.90
2022-11-30T12:04:45.238Z,28.53
2022-11-30T12:07:24.980Z,30.77
2022-11-30T12:10:00.779Z,28.10
2022-11-30T12:12:29.035Z,26.53
2022-11-30T12:14:57.640Z,31.03
2022-11-30T12:17:39.243Z,28.60
2022-11-30T12:20:18.385Z,33.10
2022-11-30T12:23:07.999Z,36.57
2022-11-30T12:25:40.437Z,40.10
2022-11-30T12:28:20.700Z,42.60
2022-11-30T12:31:01.682Z,36.93
2022-11-30T12:33:41.559Z,44.50
2022-11-30T12:36:19.999Z,40.20
2022-11-30T12:38:52.420Z,34.27
2022-11-30T12:41:32.274Z,37.93
2022-11-30T12:44:13.922Z,34.90
2022-11-30T12:46:52.561Z,33.80
2022-11-30T12:49:37.921Z,36.80
2022-11-30T12:52:21.531Z,33.57
2022-11-30T12:54:59.381Z,30.97
2022-11-30T12:57:34.988Z,32.70
2022-11-30T13:00:07.573Z,32.60
2022-11-30T13:03:05.905Z,36.67
2022-11-30T13:05:40.157Z,30.67
2022-11-30T13:08:15.909Z,33.97
2022-11-30T13:10:48.536Z,50.90
2022-11-30T13:13:20.775Z,52.63
2022-11-30T13:15:50.174Z,38.73
2022-11-30T13:18:20.267Z,41.43
2022-11-30T13:20:53.943Z,43.93
2022-11-30T13:23:31.536Z,37.30
2022-11-30T13:26:08.950Z,47.73
2022-11-30T13:29:02.046Z,34.57
2022-11-30T13:31:36.104Z,35.43
2022-11-30T13:34:04.197Z,37.97
2022-11-30T13:36:36.594Z,42.73
2022-11-30T13:39:33.094Z,43.40
2022-11-30T13:42:48.906Z,41.03
2022-11-30T13:45:34.392Z,39.23
2022-11-30T13:48:20.041Z,49.63
2022-11-30T13:50:49.473Z,45.40
2022-11-30T13:53:23.773Z,56.10
2022-11-30T13:56:01.103Z,46.33
2022-11-30T13:58:31.432Z,50.83
2022-11-30T14:01:27.348Z,51.80
2022-11-30T14:04:33.100Z,47.10
2022-11-30T14:07:00.978Z,51.47
2022-11-30T14:09:58.341Z,42.67
2022-11-30T14:12:59.025Z,34.80
2022-11-30T14:15:53.424Z,35.33
2022-11-30T14:18:39.661Z,34.87
2022-11-30T14:21:20.661Z,37.93
2022-11-30T14:23:55.198Z,38.93
2022-11-30T14:26:29.173Z,39.87
2022-11-30T14:29:04.268Z,39.90
2022-11-30T14:31:38.209Z,39.17
2022-11-30T14:34:12.477Z,37.00
2022-11-30T14:36:44.687Z,38.23
2022-11-30T14:39:26.685Z,36.97
2022-11-30T14:41:55.347Z,37.47
2022-11-30T14:44:23.191Z,37.53
2022-11-30T14:46:52.624Z,37.57
2022-11-30T14:49:22.281Z,36.77
2022-11-30T14:51:52.777Z,35.70
2022-11-30T14:54:43.386Z,35.47
2022-11-30T14:57:23.581Z,38.03
2022-11-30T14:59:54.816Z,38.60
2022-11-30T15:02:30.276Z,37.40
2022-11-30T15:05:00.112Z,38.67
2022-11-30T15:07:29.652Z,39.47
2022-11-30T15:10:04.481Z,37.53
2022-11-30T15:12:33.334Z,38.97
2022-11-30T15:15:15.289Z,38.73
2022-11-30T15:17:53.785Z,38.50
2022-11-30T15:22:35.845Z,39.63
2022-11-30T15:25:04.035Z,37.37
2022-11-30T15:27:31.978Z,36.57
2022-11-30T15:30:01.677Z,37.77
2022-11-30T15:32:30.130Z,37.63
2022-11-30T15:35:00.697Z,38.43
2022-11-30T15:37:31.302Z,34.47
2022-11-30T15:40:03.967Z,37.80
2022-11-30T15:42:39.772Z,36.90
2022-11-30T15:45:18.172Z,36.90
2022-11-30T15:47:46.059Z,30.60
2022-11-30T15:50:43.127Z,39.20
2022-11-30T15:53:35.986Z,39.00
2022-11-30T15:56:08.029Z,37.73
2022-11-30T15:58:45.221Z,38.47
2022-11-30T16:01:16.782Z,36.63
2022-11-30T16:04:05.629Z,35.13
2022-11-30T16:06:36.621Z,36.20
2022-11-30T16:09:19.778Z,38.37
2022-11-30T16:11:51.158Z,37.37
2022-11-30T16:14:19.094Z,38.50
2022-11-30T16:16:47.119Z,41.60
2022-11-30T16:19:15.156Z,44.83
2022-11-30T16:21:43.493Z,44.57
2022-11-30T16:24:14.835Z,40.17
2022-11-30T16:26:50.988Z,38.67
2022-11-30T16:29:21.076Z,38.63
2022-11-30T16:31:49.172Z,38.87
2022-11-30T16:34:17.101Z,41.03
2022-11-30T16:36:44.992Z,39.60
2022-11-30T16:39:13.659Z,38.40
2022-11-30T16:41:41.504Z,39.23
2022-11-30T16:44:14.353Z,41.90
2022-11-30T16:46:43.620Z,42.73
2022-11-30T16:49:11.384Z,43.90
2022-11-30T16:51:41.622Z,44.63
2022-11-30T16:54:12.110Z,50.50
2022-11-30T16:56:39.994Z,50.83
2022-11-30T16:59:13.426Z,62.50
2022-11-30T17:01:47.874Z,48.63
2022-11-30T17:04:19.231Z,46.10
2022-11-30T17:06:50.506Z,47.73
2022-11-30T17:09:21.270Z,47.20
2022-11-30T17:11:51.370Z,46.33
2022-11-30T17:14:22.426Z,45.57
2022-11-30T17:16:51.759Z,46.50
2022-11-30T17:19:19.615Z,45.13
2022-11-30T17:21:48.319Z,45.87
2022-11-30T17:24:16.152Z,45.03
2022-11-30T17:26:44.156Z,45.93
2022-11-30T17:29:12.035Z,44.77
2022-11-30T17:31:39.986Z,46.10
2022-11-30T17:34:09.395Z,44.30
2022-11-30T17:36:37.381Z,44.30
2022-11-30T17:39:06.971Z,45.50
2022-11-30T17:41:34.898Z,46.67
2022-11-30T17:44:03.903Z,46.10
2022-11-30T17:46:31.817Z,45.33
2022-11-30T17:48:59.595Z,45.73
2022-11-30T17:51:28.998Z,46.43
2022-11-30T17:53:56.947Z,46.27
2022-11-30T17:56:25.856Z,44.63
2022-11-30T17:58:53.747Z,45.40
2022-11-30T18:01:23.691Z,46.90
2022-11-30T18:03:52.677Z,45.73
2022-11-30T18:06:21.045Z,45.83
2022-11-30T18:08:50.416Z,46.27
2022-11-30T18:11:20.313Z,44.83
2022-11-30T18:13:49.835Z,45.17
2022-11-30T18:16:19.343Z,45.50
2022-11-30T18:18:48.659Z,47.80
2022-11-30T18:21:18.705Z,46.40
2022-11-30T18:23:46.648Z,45.67
2022-11-30T18:26:17.735Z,46.13
2022-11-30T18:28:46.016Z,44.37
2022-11-30T18:31:14.168Z,45.23
2022-11-30T18:33:42.057Z,44.57
2022-11-30T18:36:10.174Z,43.70
2022-11-30T18:38:38.958Z,45.20
2022-11-30T18:41:07.356Z,45.30
2022-11-30T18:43:38.623Z,45.43
2022-11-30T18:46:08.683Z,43.60
2022-11-30T18:48:37.345Z,44.27
2022-11-30T18:51:11.467Z,46.07
2022-11-30T18:53:39.405Z,45.40
2022-11-30T18:56:13.155Z,44.67
2022-11-30T18:58:43.146Z,42.50
2022-11-30T19:01:13.337Z,44.53
2022-11-30T19:03:41.689Z,44.10
2022-11-30T19:06:12.537Z,42.60
2022-11-30T19:08:41.384Z,41.47
2022-11-30T19:11:10.451Z,43.03
2022-11-30T19:13:38.374Z,44.23
2022-11-30T19:16:09.616Z,43.97
2022-11-30T19:18:38.045Z,43.00
2022-11-30T19:21:09.662Z,43.97
2022-11-30T19:23:38.265Z,44.00
2022-11-30T19:26:07.020Z,43.43
2022-11-30T19:28:36.452Z,43.80
2022-11-30T19:31:10.373Z,43.90
2022-11-30T19:33:39.509Z,42.93
2022-11-30T19:36:09.801Z,42.60
2022-11-30T19:38:37.680Z,44.37
2022-11-30T19:41:06.976Z,42.43
2022-11-30T19:43:34.991Z,43.43
2022-11-30T19:46:09.526Z,41.63
2022-11-30T19:48:37.578Z,42.87
2022-11-30T19:51:07.343Z,43.00
2022-11-30T19:53:35.621Z,42.40
2022-11-30T19:56:06.045Z,41.77
2022-11-30T19:58:34.959Z,43.03
2022-11-30T20:01:04.864Z,43.73
2022-11-30T20:03:35.932Z,42.50
2022-11-30T20:06:03.975Z,43.20
2022-11-30T20:08:31.815Z,43.57
2022-11-30T20:10:59.677Z,41.57
2022-11-30T20:13:27.477Z,42.87
2022-11-30T20:15:55.496Z,42.97
2022-11-30T20:18:23.313Z,43.23
2022-11-30T20:20:52.475Z,42.40
2022-11-30T20:23:20.339Z,43.57
2022-11-30T20:25:48.167Z,42.07
2022-11-30T20:28:15.986Z,42.50
2022-11-30T20:30:43.862Z,41.13
2022-11-30T20:33:11.734Z,43.70
2022-11-30T20:35:39.509Z,43.47
2022-11-30T20:38:08.711Z,41.67
2022-11-30T20:40:39.679Z,43.33
2022-11-30T20:43:07.530Z,42.33
2022-11-30T20:45:35.342Z,43.77
2022-11-30T20:48:03.297Z,42.70
2022-11-30T20:50:31.054Z,43.70
2022-11-30T20:52:58.900Z,43.37
2022-11-30T20:55:28.157Z,43.17
2022-11-30T20:57:56.051Z,42.90
2022-11-30T21:00:24.037Z,42.27
2022-11-30T21:02:51.947Z,43.73
2022-11-30T21:05:19.821Z,40.67
2022-11-30T21:07:48.398Z,41.67
2022-11-30T21:10:17.027Z,42.47
2022-11-30T21:12:46.195Z,42.03
2022-11-30T21:15:14.045Z,41.27
2022-11-30T21:17:41.844Z,42.00
2022-11-30T21:20:10.641Z,42.13
2022-11-30T21:22:38.438Z,44.53
2022-11-30T21:25:06.945Z,42.27
2022-11-30T21:27:34.793Z,42.17
2022-11-30T21:30:04.059Z,40.03
2022-11-30T21:32:31.871Z,43.50
2022-11-30T21:34:59.701Z,41.73
2022-11-30T21:37:27.532Z,41.97
2022-11-30T21:39:55.389Z,42.37
2022-11-30T21:42:23.157Z,42.67
2022-11-30T21:44:51.213Z,43.23
2022-11-30T21:47:20.461Z,42.03
2022-11-30T21:49:48.293Z,41.90
2022-11-30T21:52:16.169Z,41.97
2022-11-30T21:54:44.039Z,43.40
2022-11-30T21:57:11.814Z,41.07
2022-11-30T21:59:39.751Z,39.77
2022-11-30T22:02:07.855Z,42.43
2022-11-30T22:04:39.710Z,42.03
2022-11-30T22:07:07.783Z,43.07
2022-11-30T22:09:35.555Z,41.87
2022-11-30T22:12:03.446Z,41.90
2022-11-30T22:14:31.380Z,41.40
2022-11-30T22:16:59.205Z,40.77
2022-11-30T22:19:27.038Z,42.97
2022-11-30T22:21:56.498Z,42.90
2022-11-30T22:24:24.497Z,43.60
2022-11-30T22:26:52.273Z,42.37
2022-11-30T22:29:22.157Z,43.00
2022-11-30T22:31:52.511Z,42.10
2022-11-30T22:34:20.974Z,43.70
2022-11-30T22:36:49.086Z,42.63
2022-11-30T22:39:19.675Z,42.73
2022-11-30T22:41:54.769Z,43.27
2022-11-30T22:44:23.940Z,44.43
2022-11-30T22:46:52.014Z,41.60
2022-11-30T22:49:21.620Z,43.80
2022-11-30T22:51:50.440Z,44.20
2022-11-30T22:54:19.830Z,43.03
2022-11-30T22:56:47.797Z,42.47
2022-11-30T22:59:16.599Z,43.37
2022-11-30T23:01:46.278Z,42.90
2022-11-30T23:04:16.628Z,41.13
2022-11-30T23:06:44.942Z,42.43
2022-11-30T23:09:14.784Z,42.83
2022-11-30T23:11:44.084Z,43.13
2022-11-30T23:14:12.156Z,43.40
2022-11-30T23:16:40.715Z,45.27
2022-11-30T23:19:09.956Z,41.43
2022-11-30T23:21:41.613Z,42.37
2022-11-30T23:24:14.416Z,42.77
2022-11-30T23:26:43.985Z,41.83
2022-11-30T23:29:13.491Z,42.63
2022-11-30T23:31:42.952Z,43.23
2022-11-30T23:34:13.764Z,44.13
2022-11-30T23:36:41.830Z,42.20
2022-11-30T23:39:11.358Z,43.60
2022-11-30T23:41:39.450Z,43.23
2022-11-30T23:44:09.355Z,42.73
2022-11-30T23:46:37.708Z,42.47
2022-11-30T23:49:05.767Z,43.23
2022-11-30T23:51:33.669Z,41.47
2022-11-30T23:54:01.555Z,41.30
2022-11-30T23:56:29.441Z,42.03
2022-11-30T23:58:57.212Z,43.67
